Portada
METAR-TAF:

METAR-TAF

Aeroports :

Agra, Índia

latitud: 27-09-27N, longitud: 077-57-39E, altitud: 168 m

METAR: manca

Hora: 17:33 (12:03 UTC)

Pronòstic

L'informe es va fer fa 2 hores i 33 minuts, a les 09:30 UTC
Pronòstic vàlid del 02 a les 12 UTC al 02 a les 24 UTC
Vent 2 kt amb direcció variable
Visibilitat: 0600 m
Núvols disperses a una alçada de 2000 ft
Cel ennuvolat a una alçada de 9000 ft
boira
Temporalment
l' 02 a les 12 UTC al 02 a les 16 UTC
Visibilitat: 0600 m
pluja, boira
Evolucionant progressivament
l' 02 a les 16 UTC al 02 a les 20 UTC
Vent 2 kt amb direcció variable
Visibilitat: 0400 m
Núvols disperses a una alçada de 2000 ft
Cel ennuvolat a una alçada de 9000 ft
boira

TAF: VIAG 020930Z 0212/0224 VRB02KT 0600 FG SCT020 BKN090 TEMPO 0212/0216 0600 -RAFG BECMG 0216/0220 VRB02KT 0400 FG SCT020 BKN090

Observacions i pronòstics meteorològics de més de 4000 aeroports (METAR i TAF).

Les estacions disponibles són els punts grocs i vermells al mapa.

Posi el ratolí al punt desitjat per veure el nom de l'estació.

Feu clic per veure les observacions i els pronòstics meteorològics.

Per canviar el mapa: feu clic els botons verds amb una creu de color negre per apropar; al botó verd amb un guió per allunyar la imatge; o en les fletxes verdes per a mapes adjacents.


METAR-TAF: